sensor_id;sensor_type;location;lat;lon;timestamp;P1;durP1;ratioP1;P2;durP2;ratioP2
1054;SDS011;516;51.482;7.120;2023-05-14T00:05:44;25.10;;;22.60;;
1054;SDS011;516;51.482;7.120;2023-05-14T00:11:31;24.90;;;22.10;;
1054;SDS011;516;51.482;7.120;2023-05-14T00:17:19;24.60;;;21.60;;
1054;SDS011;516;51.482;7.120;2023-05-14T00:23:07;23.63;;;21.10;;
1054;SDS011;516;51.482;7.120;2023-05-14T00:28:54;22.33;;;20.13;;
1054;SDS011;516;51.482;7.120;2023-05-14T00:34:44;23.63;;;21.13;;
1054;SDS011;516;51.482;7.120;2023-05-14T00:40:32;26.90;;;24.03;;
1054;SDS011;516;51.482;7.120;2023-05-14T00:46:20;23.77;;;21.23;;
1054;SDS011;516;51.482;7.120;2023-05-14T00:52:07;26.63;;;23.20;;
1054;SDS011;516;51.482;7.120;2023-05-14T00:57:56;25.07;;;22.37;;
1054;SDS011;516;51.482;7.120;2023-05-14T01:03:45;22.97;;;20.70;;
1054;SDS011;516;51.482;7.120;2023-05-14T01:15:43;25.47;;;21.20;;
1054;SDS011;516;51.482;7.120;2023-05-14T01:21:37;25.90;;;23.07;;
1054;SDS011;516;51.482;7.120;2023-05-14T01:37:07;29.40;;;23.27;;
1054;SDS011;516;51.482;7.120;2023-05-14T01:42:58;33.83;;;22.60;;
1054;SDS011;516;51.482;7.120;2023-05-14T01:48:46;27.33;;;24.50;;
1054;SDS011;516;51.482;7.120;2023-05-14T01:54:34;29.00;;;23.30;;
1054;SDS011;516;51.482;7.120;2023-05-14T02:00:22;28.90;;;26.03;;
1054;SDS011;516;51.482;7.120;2023-05-14T02:06:13;26.67;;;23.87;;
1054;SDS011;516;51.482;7.120;2023-05-14T02:11:42;26.27;;;23.60;;
1054;SDS011;516;51.482;7.120;2023-05-14T02:17:30;28.73;;;24.43;;
1054;SDS011;516;51.482;7.120;2023-05-14T02:23:17;27.97;;;24.70;;
1054;SDS011;516;51.482;7.120;2023-05-14T02:29:05;30.20;;;23.27;;
1054;SDS011;516;51.482;7.120;2023-05-14T02:35:01;25.27;;;22.23;;
1054;SDS011;516;51.482;7.120;2023-05-14T02:40:48;26.87;;;23.73;;
1054;SDS011;516;51.482;7.120;2023-05-14T02:45:58;31.60;;;24.93;;
1054;SDS011;516;51.482;7.120;2023-05-14T02:51:45;34.27;;;23.13;;
1054;SDS011;516;51.482;7.120;2023-05-14T02:57:32;24.83;;;22.23;;
1054;SDS011;516;51.482;7.120;2023-05-14T03:03:19;25.17;;;22.50;;
1054;SDS011;516;51.482;7.120;2023-05-14T03:09:06;28.83;;;23.40;;
1054;SDS011;516;51.482;7.120;2023-05-14T03:14:54;24.47;;;21.90;;
1054;SDS011;516;51.482;7.120;2023-05-14T03:20:42;26.43;;;23.50;;
1054;SDS011;516;51.482;7.120;2023-05-14T03:26:29;27.63;;;22.97;;
1054;SDS011;516;51.482;7.120;2023-05-14T03:32:17;25.27;;;22.53;;
1054;SDS011;516;51.482;7.120;2023-05-14T03:38:05;24.67;;;21.57;;
1054;SDS011;516;51.482;7.120;2023-05-14T03:43:53;24.63;;;21.23;;
1054;SDS011;516;51.482;7.120;2023-05-14T03:49:40;26.50;;;23.60;;
1054;SDS011;516;51.482;7.120;2023-05-14T03:55:28;27.17;;;23.93;;
1054;SDS011;516;51.482;7.120;2023-05-14T04:01:16;25.50;;;22.90;;
1054;SDS011;516;51.482;7.120;2023-05-14T04:07:04;31.50;;;23.60;;
1054;SDS011;516;51.482;7.120;2023-05-14T04:12:52;29.83;;;24.67;;
1054;SDS011;516;51.482;7.120;2023-05-14T04:18:41;29.97;;;24.20;;
1054;SDS011;516;51.482;7.120;2023-05-14T04:24:28;28.70;;;25.57;;
1054;SDS011;516;51.482;7.120;2023-05-14T04:30:16;27.47;;;23.70;;
1054;SDS011;516;51.482;7.120;2023-05-14T04:36:04;31.93;;;27.63;;
1054;SDS011;516;51.482;7.120;2023-05-14T04:41:52;27.27;;;24.30;;
1054;SDS011;516;51.482;7.120;2023-05-14T04:47:40;34.17;;;27.80;;
1054;SDS011;516;51.482;7.120;2023-05-14T04:53:28;29.30;;;26.07;;
1054;SDS011;516;51.482;7.120;2023-05-14T04:59:15;29.27;;;25.17;;
1054;SDS011;516;51.482;7.120;2023-05-14T05:05:03;26.97;;;24.10;;
1054;SDS011;516;51.482;7.120;2023-05-14T05:10:51;27.17;;;24.30;;
1054;SDS011;516;51.482;7.120;2023-05-14T05:16:39;26.40;;;23.83;;
1054;SDS011;516;51.482;7.120;2023-05-14T05:22:27;26.50;;;23.93;;
1054;SDS011;516;51.482;7.120;2023-05-14T05:28:14;25.40;;;22.73;;
1054;SDS011;516;51.482;7.120;2023-05-14T05:37:24;26.93;;;22.03;;
1054;SDS011;516;51.482;7.120;2023-05-14T05:43:13;25.57;;;23.10;;
1054;SDS011;516;51.482;7.120;2023-05-14T05:49:01;26.20;;;23.90;;
1054;SDS011;516;51.482;7.120;2023-05-14T05:54:49;25.77;;;23.27;;
1054;SDS011;516;51.482;7.120;2023-05-14T06:00:36;26.17;;;23.87;;
1054;SDS011;516;51.482;7.120;2023-05-14T06:06:24;25.63;;;22.43;;
1054;SDS011;516;51.482;7.120;2023-05-14T06:12:12;24.77;;;22.43;;
1054;SDS011;516;51.482;7.120;2023-05-14T06:18:00;24.73;;;22.20;;
1054;SDS011;516;51.482;7.120;2023-05-14T06:23:47;22.10;;;20.40;;
1054;SDS011;516;51.482;7.120;2023-05-14T06:29:35;22.30;;;20.47;;
1054;SDS011;516;51.482;7.120;2023-05-14T06:35:14;21.30;;;19.60;;
1054;SDS011;516;51.482;7.120;2023-05-14T06:41:02;20.80;;;19.30;;
1054;SDS011;516;51.482;7.120;2023-05-14T06:46:50;21.20;;;19.50;;
1054;SDS011;516;51.482;7.120;2023-05-14T06:52:38;20.10;;;18.50;;
1054;SDS011;516;51.482;7.120;2023-05-14T06:58:25;19.23;;;17.93;;
1054;SDS011;516;51.482;7.120;2023-05-14T07:04:13;19.03;;;17.57;;
1054;SDS011;516;51.482;7.120;2023-05-14T07:10:01;19.07;;;17.57;;
1054;SDS011;516;51.482;7.120;2023-05-14T07:15:49;18.10;;;16.80;;
1054;SDS011;516;51.482;7.120;2023-05-14T07:21:37;17.87;;;16.47;;
1054;SDS011;516;51.482;7.120;2023-05-14T07:27:25;16.80;;;15.80;;
1054;SDS011;516;51.482;7.120;2023-05-14T07:43:05;13.57;;;12.87;;
1054;SDS011;516;51.482;7.120;2023-05-14T07:48:53;17.03;;;16.00;;
1054;SDS011;516;51.482;7.120;2023-05-14T07:54:41;16.20;;;15.20;;
1054;SDS011;516;51.482;7.120;2023-05-14T08:00:10;14.27;;;13.47;;
1054;SDS011;516;51.482;7.120;2023-05-14T08:05:58;12.30;;;11.73;;
1054;SDS011;516;51.482;7.120;2023-05-14T08:11:46;13.10;;;11.97;;
1054;SDS011;516;51.482;7.120;2023-05-14T08:17:34;13.07;;;12.20;;
1054;SDS011;516;51.482;7.120;2023-05-14T08:23:22;14.10;;;13.20;;
1054;SDS011;516;51.482;7.120;2023-05-14T08:29:09;13.67;;;13.07;;
1054;SDS011;516;51.482;7.120;2023-05-14T08:38:19;11.80;;;11.27;;
1054;SDS011;516;51.482;7.120;2023-05-14T08:50:02;11.97;;;11.33;;
1054;SDS011;516;51.482;7.120;2023-05-14T08:56:11;11.77;;;11.17;;
1054;SDS011;516;51.482;7.120;2023-05-14T09:02:02;11.13;;;10.63;;
1054;SDS011;516;51.482;7.120;2023-05-14T09:07:52;11.97;;;11.37;;
1054;SDS011;516;51.482;7.120;2023-05-14T09:13:40;11.47;;;10.97;;
1054;SDS011;516;51.482;7.120;2023-05-14T09:19:28;11.30;;;10.80;;
1054;SDS011;516;51.482;7.120;2023-05-14T09:25:16;10.73;;;10.13;;
1054;SDS011;516;51.482;7.120;2023-05-14T09:31:03;14.10;;;13.30;;
1054;SDS011;516;51.482;7.120;2023-05-14T09:33:50;12.53;;;11.83;;
1054;SDS011;516;51.482;7.120;2023-05-14T09:36:16;12.23;;;11.63;;
1054;SDS011;516;51.482;7.120;2023-05-14T09:42:05;12.30;;;11.40;;
1054;SDS011;516;51.482;7.120;2023-05-14T09:47:53;11.77;;;11.07;;
1054;SDS011;516;51.482;7.120;2023-05-14T09:53:40;11.97;;;11.47;;
1054;SDS011;516;51.482;7.120;2023-05-14T09:59:30;11.77;;;11.20;;
1054;SDS011;516;51.482;7.120;2023-05-14T10:05:18;11.60;;;11.00;;
1054;SDS011;516;51.482;7.120;2023-05-14T10:11:08;12.30;;;11.40;;
1054;SDS011;516;51.482;7.120;2023-05-14T10:17:01;12.37;;;11.70;;
1054;SDS011;516;51.482;7.120;2023-05-14T10:22:51;12.60;;;11.90;;
1054;SDS011;516;51.482;7.120;2023-05-14T10:28:39;15.00;;;14.17;;
1054;SDS011;516;51.482;7.120;2023-05-14T10:44:48;13.67;;;12.53;;
1054;SDS011;516;51.482;7.120;2023-05-14T10:50:37;14.07;;;13.37;;
1054;SDS011;516;51.482;7.120;2023-05-14T10:56:25;13.20;;;12.57;;
1054;SDS011;516;51.482;7.120;2023-05-14T11:08:16;14.03;;;13.33;;
1054;SDS011;516;51.482;7.120;2023-05-14T11:14:05;14.10;;;13.20;;
1054;SDS011;516;51.482;7.120;2023-05-14T11:19:53;14.07;;;13.27;;
1054;SDS011;516;51.482;7.120;2023-05-14T11:25:42;14.63;;;13.40;;
1054;SDS011;516;51.482;7.120;2023-05-14T11:31:30;14.23;;;12.70;;
1054;SDS011;516;51.482;7.120;2023-05-14T11:40:40;13.77;;;12.90;;
1054;SDS011;516;51.482;7.120;2023-05-14T11:46:28;12.97;;;12.07;;
1054;SDS011;516;51.482;7.120;2023-05-14T11:52:16;13.57;;;13.07;;
1054;SDS011;516;51.482;7.120;2023-05-14T11:58:07;13.93;;;13.20;;
1054;SDS011;516;51.482;7.120;2023-05-14T12:03:55;13.67;;;13.07;;
1054;SDS011;516;51.482;7.120;2023-05-14T12:09:44;15.57;;;14.30;;
1054;SDS011;516;51.482;7.120;2023-05-14T12:15:35;14.10;;;13.40;;
1054;SDS011;516;51.482;7.120;2023-05-14T12:21:23;13.30;;;12.63;;
1054;SDS011;516;51.482;7.120;2023-05-14T12:27:12;12.70;;;12.10;;
1054;SDS011;516;51.482;7.120;2023-05-14T12:33:00;13.00;;;12.40;;
1054;SDS011;516;51.482;7.120;2023-05-14T12:38:30;13.30;;;12.60;;
1054;SDS011;516;51.482;7.120;2023-05-14T12:44:18;12.70;;;12.20;;
1054;SDS011;516;51.482;7.120;2023-05-14T12:50:06;14.27;;;13.40;;
1054;SDS011;516;51.482;7.120;2023-05-14T12:55:54;13.87;;;13.27;;
1054;SDS011;516;51.482;7.120;2023-05-14T13:01:42;13.50;;;12.80;;
1054;SDS011;516;51.482;7.120;2023-05-14T13:07:29;13.20;;;12.70;;
1054;SDS011;516;51.482;7.120;2023-05-14T13:13:17;13.53;;;12.43;;
1054;SDS011;516;51.482;7.120;2023-05-14T13:19:05;14.33;;;13.73;;
1054;SDS011;516;51.482;7.120;2023-05-14T13:24:53;13.97;;;13.40;;
1054;SDS011;516;51.482;7.120;2023-05-14T13:30:40;13.30;;;12.60;;
1054;SDS011;516;51.482;7.120;2023-05-14T13:40:32;13.70;;;12.73;;
1054;SDS011;516;51.482;7.120;2023-05-14T13:46:19;14.47;;;13.60;;
1054;SDS011;516;51.482;7.120;2023-05-14T13:52:07;13.30;;;12.60;;
1054;SDS011;516;51.482;7.120;2023-05-14T13:57:36;15.60;;;14.80;;
1054;SDS011;516;51.482;7.120;2023-05-14T14:03:25;15.93;;;15.23;;
1054;SDS011;516;51.482;7.120;2023-05-14T14:09:13;20.73;;;19.63;;
1054;SDS011;516;51.482;7.120;2023-05-14T14:15:01;44.93;;;41.43;;
1054;SDS011;516;51.482;7.120;2023-05-14T14:20:50;19.27;;;17.93;;
1054;SDS011;516;51.482;7.120;2023-05-14T14:26:38;18.63;;;17.53;;
1054;SDS011;516;51.482;7.120;2023-05-14T14:32:26;15.33;;;14.53;;
1054;SDS011;516;51.482;7.120;2023-05-14T14:41:36;13.60;;;13.00;;
1054;SDS011;516;51.482;7.120;2023-05-14T14:47:23;13.60;;;12.90;;
1054;SDS011;516;51.482;7.120;2023-05-14T14:53:11;17.93;;;17.03;;
1054;SDS011;516;51.482;7.120;2023-05-14T14:58:59;15.40;;;14.70;;
1054;SDS011;516;51.482;7.120;2023-05-14T15:04:48;14.43;;;13.33;;
1054;SDS011;516;51.482;7.120;2023-05-14T15:10:36;49.20;;;45.43;;
1054;SDS011;516;51.482;7.120;2023-05-14T15:16:24;14.00;;;13.30;;
1054;SDS011;516;51.482;7.120;2023-05-14T15:22:11;12.70;;;12.10;;
1054;SDS011;516;51.482;7.120;2023-05-14T15:27:59;13.87;;;13.30;;
1054;SDS011;516;51.482;7.120;2023-05-14T15:33:47;18.03;;;16.83;;
1054;SDS011;516;51.482;7.120;2023-05-14T15:39:30;13.73;;;13.13;;
1054;SDS011;516;51.482;7.120;2023-05-14T15:45:18;13.77;;;12.60;;
1054;SDS011;516;51.482;7.120;2023-05-14T15:51:06;12.30;;;11.80;;
1054;SDS011;516;51.482;7.120;2023-05-14T15:56:54;15.07;;;14.30;;
1054;SDS011;516;51.482;7.120;2023-05-14T16:02:42;14.10;;;13.50;;
1054;SDS011;516;51.482;7.120;2023-05-14T16:08:30;13.33;;;12.63;;
1054;SDS011;516;51.482;7.120;2023-05-14T16:14:18;13.90;;;13.10;;
1054;SDS011;516;51.482;7.120;2023-05-14T16:20:06;13.80;;;13.20;;
1054;SDS011;516;51.482;7.120;2023-05-14T16:25:53;13.53;;;12.93;;
1054;SDS011;516;51.482;7.120;2023-05-14T16:31:41;14.73;;;13.83;;
1054;SDS011;516;51.482;7.120;2023-05-14T16:47:20;16.07;;;15.30;;
1054;SDS011;516;51.482;7.120;2023-05-14T16:53:08;18.47;;;17.33;;
1054;SDS011;516;51.482;7.120;2023-05-14T16:58:55;24.73;;;23.20;;
1054;SDS011;516;51.482;7.120;2023-05-14T17:04:43;17.97;;;16.97;;
1054;SDS011;516;51.482;7.120;2023-05-14T17:10:31;18.13;;;17.03;;
1054;SDS011;516;51.482;7.120;2023-05-14T17:16:19;18.00;;;16.90;;
1054;SDS011;516;51.482;7.120;2023-05-14T17:22:07;17.37;;;16.43;;
1054;SDS011;516;51.482;7.120;2023-05-14T17:27:55;15.57;;;14.87;;
1054;SDS011;516;51.482;7.120;2023-05-14T17:33:43;14.90;;;14.10;;
1054;SDS011;516;51.482;7.120;2023-05-14T17:39:30;15.90;;;15.03;;
1054;SDS011;516;51.482;7.120;2023-05-14T17:45:18;14.40;;;13.80;;
1054;SDS011;516;51.482;7.120;2023-05-14T17:51:06;14.67;;;13.80;;
1054;SDS011;516;51.482;7.120;2023-05-14T17:56:54;14.70;;;14.10;;
1054;SDS011;516;51.482;7.120;2023-05-14T18:02:43;15.63;;;14.93;;
1054;SDS011;516;51.482;7.120;2023-05-14T18:08:31;14.70;;;14.10;;
1054;SDS011;516;51.482;7.120;2023-05-14T18:14:18;15.20;;;14.50;;
1054;SDS011;516;51.482;7.120;2023-05-14T18:20:06;15.87;;;15.07;;
1054;SDS011;516;51.482;7.120;2023-05-14T18:25:55;15.23;;;14.57;;
1054;SDS011;516;51.482;7.120;2023-05-14T18:31:43;18.07;;;17.07;;
1054;SDS011;516;51.482;7.120;2023-05-14T18:47:21;16.10;;;15.30;;
1054;SDS011;516;51.482;7.120;2023-05-14T18:53:08;18.10;;;17.10;;
1054;SDS011;516;51.482;7.120;2023-05-14T18:58:56;15.83;;;14.93;;
1054;SDS011;516;51.482;7.120;2023-05-14T19:04:44;17.70;;;16.70;;
1054;SDS011;516;51.482;7.120;2023-05-14T19:10:32;16.27;;;15.47;;
1054;SDS011;516;51.482;7.120;2023-05-14T19:16:21;16.80;;;15.83;;
1054;SDS011;516;51.482;7.120;2023-05-14T19:22:08;15.30;;;14.60;;
1054;SDS011;516;51.482;7.120;2023-05-14T19:27:56;18.53;;;17.23;;
1054;SDS011;516;51.482;7.120;2023-05-14T19:33:47;16.20;;;15.40;;
1054;SDS011;516;51.482;7.120;2023-05-14T19:39:30;15.40;;;14.70;;
1054;SDS011;516;51.482;7.120;2023-05-14T19:45:18;15.00;;;14.30;;
1054;SDS011;516;51.482;7.120;2023-05-14T19:51:06;16.07;;;15.27;;
1054;SDS011;516;51.482;7.120;2023-05-14T19:56:53;15.00;;;14.20;;
1054;SDS011;516;51.482;7.120;2023-05-14T20:02:41;16.50;;;15.50;;
1054;SDS011;516;51.482;7.120;2023-05-14T20:08:29;15.03;;;14.33;;
1054;SDS011;516;51.482;7.120;2023-05-14T20:14:17;15.20;;;14.50;;
1054;SDS011;516;51.482;7.120;2023-05-14T20:20:04;16.70;;;15.60;;
1054;SDS011;516;51.482;7.120;2023-05-14T20:25:53;15.67;;;14.67;;
1054;SDS011;516;51.482;7.120;2023-05-14T20:31:40;15.40;;;14.50;;
1054;SDS011;516;51.482;7.120;2023-05-14T20:47:23;15.80;;;14.87;;
1054;SDS011;516;51.482;7.120;2023-05-14T20:53:12;15.50;;;14.50;;
1054;SDS011;516;51.482;7.120;2023-05-14T20:58:59;14.37;;;13.50;;
1054;SDS011;516;51.482;7.120;2023-05-14T21:04:47;15.80;;;14.43;;
1054;SDS011;516;51.482;7.120;2023-05-14T21:10:35;14.20;;;13.20;;
1054;SDS011;516;51.482;7.120;2023-05-14T21:16:23;14.13;;;13.00;;
1054;SDS011;516;51.482;7.120;2023-05-14T21:22:11;14.83;;;13.77;;
1054;SDS011;516;51.482;7.120;2023-05-14T21:27:59;13.67;;;12.73;;
1054;SDS011;516;51.482;7.120;2023-05-14T21:33:46;14.80;;;13.80;;
1054;SDS011;516;51.482;7.120;2023-05-14T21:39:28;13.50;;;12.50;;
1054;SDS011;516;51.482;7.120;2023-05-14T21:45:15;13.53;;;12.50;;
1054;SDS011;516;51.482;7.120;2023-05-14T21:51:03;13.33;;;12.33;;
1054;SDS011;516;51.482;7.120;2023-05-14T21:56:51;12.43;;;11.50;;
1054;SDS011;516;51.482;7.120;2023-05-14T22:02:39;13.67;;;12.77;;
1054;SDS011;516;51.482;7.120;2023-05-14T22:08:26;12.13;;;11.33;;
1054;SDS011;516;51.482;7.120;2023-05-14T22:14:16;12.90;;;11.70;;
1054;SDS011;516;51.482;7.120;2023-05-14T22:20:04;11.50;;;10.60;;
1054;SDS011;516;51.482;7.120;2023-05-14T22:25:52;12.00;;;11.03;;
1054;SDS011;516;51.482;7.120;2023-05-14T22:31:40;12.83;;;11.37;;
1054;SDS011;516;51.482;7.120;2023-05-14T22:47:24;12.80;;;11.90;;
1054;SDS011;516;51.482;7.120;2023-05-14T22:53:12;13.60;;;12.40;;
1054;SDS011;516;51.482;7.120;2023-05-14T22:58:59;10.80;;;9.90;;
1054;SDS011;516;51.482;7.120;2023-05-14T23:04:47;13.63;;;12.60;;
1054;SDS011;516;51.482;7.120;2023-05-14T23:10:35;12.50;;;11.40;;
1054;SDS011;516;51.482;7.120;2023-05-14T23:16:22;12.93;;;11.83;;
1054;SDS011;516;51.482;7.120;2023-05-14T23:22:10;13.37;;;12.30;;
1054;SDS011;516;51.482;7.120;2023-05-14T23:27:58;12.90;;;11.50;;
1054;SDS011;516;51.482;7.120;2023-05-14T23:33:46;12.40;;;11.40;;
1054;SDS011;516;51.482;7.120;2023-05-14T23:39:27;13.43;;;12.23;;
1054;SDS011;516;51.482;7.120;2023-05-14T23:45:15;14.93;;;13.57;;
1054;SDS011;516;51.482;7.120;2023-05-14T23:51:03;15.00;;;13.77;;
1054;SDS011;516;51.482;7.120;2023-05-14T23:56:51;14.27;;;13.17;;
